Time;durP1;ratioP1;P1;durP2;ratioP2;P2;SDS_P1;SDS_P2;PMS_P1;PMS_P2;Temp;Humidity;BMP_temperature;BMP_pressure;BME280_temperature;BME280_humidity;BME280_pressure;Samples;Min_cycle;Max_cycle;Signal;HPM_P1;HPM_P2
2021/07/03 00:00:41;;;;;;;17.20;12.00;;;;;;;;;;5052948;28;20047;-66
2021/07/03 00:03:27;;;;;;;25.92;15.88;;;;;;;;;;5052952;28;20049;-66
2021/07/03 00:06:12;;;;;;;20.38;14.10;;;;;;;;;;5054083;28;20056;-66
2021/07/03 00:08:57;;;;;;;18.98;13.15;;;;;;;;;;5053965;28;20049;-66
2021/07/03 00:11:43;;;;;;;21.55;14.90;;;;;;;;;;5052603;28;20041;-66
2021/07/03 00:14:30;;;;;;;17.65;12.55;;;;;;;;;;5052955;28;20044;-66
2021/07/03 00:17:15;;;;;;;24.50;15.30;;;;;;;;;;5053648;28;20045;-66
2021/07/03 00:20:00;;;;;;;27.50;17.40;;;;;;;;;;5053316;28;20049;-66
2021/07/03 00:22:46;;;;;;;26.92;15.90;;;;;;;;;;5052889;28;20080;-66
2021/07/03 00:25:31;;;;;;;24.45;15.15;;;;;;;;;;5053718;28;20047;-66
2021/07/03 00:28:17;;;;;;;24.33;13.38;;;;;;;;;;5053796;28;20037;-66
2021/07/03 00:31:03;;;;;;;29.77;17.75;;;;;;;;;;5052958;28;20052;-66
2021/07/03 00:33:49;;;;;;;32.60;20.15;;;;;;;;;;5052383;28;20046;-66
2021/07/03 00:36:34;;;;;;;24.80;15.82;;;;;;;;;;5052340;28;20052;-66
2021/07/03 00:39:19;;;;;;;17.23;13.63;;;;;;;;;;5053136;28;20126;-66
2021/07/03 00:42:06;;;;;;;16.42;11.82;;;;;;;;;;5051562;28;20140;-66
2021/07/03 00:44:51;;;;;;;17.90;8.35;;;;;;;;;;5052005;28;20499;-66
2021/07/03 00:47:37;;;;;;;8.35;7.32;;;;;;;;;;5053313;28;20049;-66
2021/07/03 00:50:22;;;;;;;15.77;11.68;;;;;;;;;;5053011;28;20517;-66
2021/07/03 00:53:08;;;;;;;13.65;10.75;;;;;;;;;;5050186;28;20412;-66
2021/07/03 00:55:55;;;;;;;15.10;10.95;;;;;;;;;;5051263;28;20465;-66
2021/07/03 00:58:42;;;;;;;11.45;9.20;;;;;;;;;;5051977;28;20045;-66
2021/07/03 01:01:29;;;;;;;19.05;10.55;;;;;;;;;;5052689;28;20056;-66
2021/07/03 01:04:14;;;;;;;18.45;10.98;;;;;;;;;;5049982;28;20157;-66
2021/07/03 01:07:00;;;;;;;17.92;13.35;;;;;;;;;;5038043;28;20057;-65
2021/07/03 01:09:46;;;;;;;29.90;17.20;;;;;;;;;;5051230;28;20045;-66
2021/07/03 01:12:34;;;;;;;25.80;16.77;;;;;;;;;;5052745;28;20130;-66
2021/07/03 01:15:19;;;;;;;33.70;17.88;;;;;;;;;;5032814;28;20052;-66
2021/07/03 01:18:05;;;;;;;36.70;19.60;;;;;;;;;;5031611;28;20049;-66
2021/07/03 01:20:52;;;;;;;33.88;19.58;;;;;;;;;;5031178;28;20056;-66
2021/07/03 01:23:38;;;;;;;22.67;15.95;;;;;;;;;;5037435;28;20047;-66
2021/07/03 01:26:23;;;;;;;28.05;14.75;;;;;;;;;;5052423;28;20048;-66
2021/07/03 01:29:09;;;;;;;81.60;15.73;;;;;;;;;;5107944;22;20040;-66
2021/07/03 01:31:56;;;;;;;16.77;11.63;;;;;;;;;;5075378;28;20043;-66
2021/07/03 01:34:42;;;;;;;33.58;17.40;;;;;;;;;;5092479;28;20051;-67
2021/07/03 01:37:36;;;;;;;27.77;12.20;;;;;;;;;;5077318;28;20048;-67
2021/07/03 01:40:22;;;;;;;15.60;7.70;;;;;;;;;;5042845;28;20520;-66
2021/07/03 01:43:09;;;;;;;32.40;7.88;;;;;;;;;;5056940;28;20045;-66
2021/07/03 01:45:56;;;;;;;24.50;10.77;;;;;;;;;;5070697;28;20040;-66
2021/07/03 01:48:44;;;;;;;20.30;12.00;;;;;;;;;;5070206;28;20511;-66
2021/07/03 01:51:43;;;;;;;36.80;15.52;;;;;;;;;;5058632;28;20434;-66
2021/07/03 01:54:28;;;;;;;29.40;16.20;;;;;;;;;;5071102;28;20068;-66
2021/07/03 01:57:18;;;;;;;35.13;18.48;;;;;;;;;;5070962;28;20147;-66
2021/07/03 02:00:22;;;;;;;32.40;19.20;;;;;;;;;;5068571;28;20063;-66
2021/07/03 02:03:14;;;;;;;26.20;17.23;;;;;;;;;;5069920;28;20155;-67
2021/07/03 02:06:04;;;;;;;30.63;18.95;;;;;;;;;;5070548;28;20310;-66
2021/07/03 02:08:52;;;;;;;132.13;22.73;;;;;;;;;;5071790;28;20520;-66
2021/07/03 02:11:38;;;;;;;204.40;20.20;;;;;;;;;;5071610;28;20060;-66
2021/07/03 02:14:30;;;;;;;145.52;16.42;;;;;;;;;;5070482;28;20265;-66
2021/07/03 02:17:35;;;;;;;89.45;12.35;;;;;;;;;;5070536;28;20091;-66
2021/07/03 02:20:26;;;;;;;71.65;14.05;;;;;;;;;;5070495;28;20059;-66
2021/07/03 02:23:22;;;;;;;45.72;11.15;;;;;;;;;;5070714;28;20041;-66
2021/07/03 02:26:12;;;;;;;76.47;12.98;;;;;;;;;;5070716;28;20044;-66
2021/07/03 02:28:58;;;;;;;120.68;15.98;;;;;;;;;;5069361;28;20051;-65
2021/07/03 02:31:49;;;;;;;81.70;20.42;;;;;;;;;;5071551;28;20072;-66
2021/07/03 02:34:36;;;;;;;69.88;17.70;;;;;;;;;;5070732;28;20189;-66
2021/07/03 02:37:22;;;;;;;51.33;16.38;;;;;;;;;;5071680;28;20138;-66
2021/07/03 02:40:08;;;;;;;40.58;21.45;;;;;;;;;;5070638;28;20045;-66
2021/07/03 02:42:55;;;;;;;31.08;17.65;;;;;;;;;;5054816;28;20410;-66
2021/07/03 02:45:41;;;;;;;25.67;15.60;;;;;;;;;;5065212;28;20483;-66
2021/07/03 02:48:27;;;;;;;22.02;15.60;;;;;;;;;;5070360;28;20043;-66
2021/07/03 02:51:13;;;;;;;24.23;16.67;;;;;;;;;;5070157;28;20074;-66
2021/07/03 02:53:59;;;;;;;30.50;18.83;;;;;;;;;;5069339;28;20120;-65
2021/07/03 02:56:44;;;;;;;21.40;14.65;;;;;;;;;;5059152;28;20045;-65
2021/07/03 02:59:31;;;;;;;29.88;18.52;;;;;;;;;;5056577;28;20144;-66
2021/07/03 03:02:19;;;;;;;35.22;19.00;;;;;;;;;;5069725;28;20055;-66
2021/07/03 03:05:08;;;;;;;26.90;15.98;;;;;;;;;;5058262;28;20052;-66
2021/07/03 03:07:53;;;;;;;29.15;14.60;;;;;;;;;;5055895;28;20048;-66
2021/07/03 03:10:40;;;;;;;22.33;15.00;;;;;;;;;;5053911;28;20117;-66
2021/07/03 03:13:26;;;;;;;24.05;14.93;;;;;;;;;;5055577;28;20040;-66
2021/07/03 03:16:12;;;;;;;26.58;15.63;;;;;;;;;;5071088;28;20044;-66
2021/07/03 03:18:57;;;;;;;23.17;13.45;;;;;;;;;;5073288;28;20045;-66
2021/07/03 03:21:45;;;;;;;23.02;13.52;;;;;;;;;;5062796;28;20055;-66
2021/07/03 03:24:30;;;;;;;21.60;13.32;;;;;;;;;;5073831;28;20413;-66
2021/07/03 03:27:16;;;;;;;19.73;11.80;;;;;;;;;;5073588;28;20052;-66
2021/07/03 03:30:05;;;;;;;23.45;14.15;;;;;;;;;;5072005;28;20072;-66
2021/07/03 03:32:53;;;;;;;24.65;14.40;;;;;;;;;;5072376;28;20075;-66
2021/07/03 03:35:39;;;;;;;25.05;15.00;;;;;;;;;;5073785;28;20048;-66
2021/07/03 03:38:28;;;;;;;14.27;12.13;;;;;;;;;;5074562;28;20098;-65
2021/07/03 03:41:14;;;;;;;23.15;13.32;;;;;;;;;;5073125;28;20486;-66
2021/07/03 03:43:59;;;;;;;21.67;14.20;;;;;;;;;;5072227;28;20060;-66
2021/07/03 03:46:52;;;;;;;17.20;10.70;;;;;;;;;;5059293;28;20060;-66
2021/07/03 03:49:39;;;;;;;21.60;12.98;;;;;;;;;;5058794;28;20044;-66
2021/07/03 03:52:29;;;;;;;20.80;12.18;;;;;;;;;;5069878;28;20055;-66
2021/07/03 03:55:15;;;;;;;15.90;11.13;;;;;;;;;;5073294;28;20048;-66
2021/07/03 03:58:01;;;;;;;17.88;12.52;;;;;;;;;;5073930;28;20041;-66
2021/07/03 04:00:49;;;;;;;16.88;12.55;;;;;;;;;;5073732;28;20058;-66
2021/07/03 04:03:35;;;;;;;25.48;14.05;;;;;;;;;;5073094;28;20058;-66
2021/07/03 04:06:22;;;;;;;14.05;11.20;;;;;;;;;;5071184;28;20430;-67
2021/07/03 04:09:08;;;;;;;18.55;12.30;;;;;;;;;;5073775;28;20041;-66
2021/07/03 04:11:55;;;;;;;22.17;13.68;;;;;;;;;;5073867;28;20040;-66
2021/07/03 04:14:40;;;;;;;14.77;9.32;;;;;;;;;;5073834;28;20052;-66
2021/07/03 04:17:26;;;;;;;11.65;9.32;;;;;;;;;;5073634;28;20052;-66
2021/07/03 04:20:12;;;;;;;19.08;14.77;;;;;;;;;;5071424;28;20536;-67
2021/07/03 04:22:57;;;;;;;17.40;11.82;;;;;;;;;;5073578;28;20051;-66
2021/07/03 04:25:42;;;;;;;12.85;10.43;;;;;;;;;;5058567;28;20497;-66
2021/07/03 04:28:28;;;;;;;11.82;10.20;;;;;;;;;;5073109;28;20514;-66
2021/07/03 04:31:13;;;;;;;15.65;9.82;;;;;;;;;;5073154;28;20048;-66
2021/07/03 04:33:59;;;;;;;16.05;10.60;;;;;;;;;;5058277;28;20052;-66
2021/07/03 04:36:45;;;;;;;14.23;11.18;;;;;;;;;;5071419;28;20076;-66
2021/07/03 04:39:31;;;;;;;15.63;11.70;;;;;;;;;;5073024;28;20055;-66
2021/07/03 04:42:16;;;;;;;17.73;12.00;;;;;;;;;;5073612;28;20045;-66
2021/07/03 04:45:06;;;;;;;20.98;13.90;;;;;;;;;;5073326;28;20060;-66
2021/07/03 04:47:53;;;;;;;18.48;12.18;;;;;;;;;;5072836;28;20570;-66
2021/07/03 04:50:38;;;;;;;18.35;13.80;;;;;;;;;;5071548;28;20075;-66
2021/07/03 04:53:25;;;;;;;21.48;15.30;;;;;;;;;;5073074;28;20055;-66
2021/07/03 04:56:10;;;;;;;17.13;13.40;;;;;;;;;;5073046;28;20109;-66
2021/07/03 04:58:56;;;;;;;15.55;12.50;;;;;;;;;;5072689;28;20051;-66
2021/07/03 05:01:42;;;;;;;25.75;16.15;;;;;;;;;;5071494;28;20048;-67
2021/07/03 05:04:27;;;;;;;21.10;15.07;;;;;;;;;;5070930;28;20051;-66
2021/07/03 05:07:13;;;;;;;23.08;15.68;;;;;;;;;;5072694;28;20048;-67
2021/07/03 05:10:12;;;;;;;19.73;15.35;;;;;;;;;;5071227;28;20120;-66
2021/07/03 05:12:57;;;;;;;25.08;19.25;;;;;;;;;;5072675;28;20040;-66
2021/07/03 05:15:43;;;;;;;22.55;18.20;;;;;;;;;;5071467;28;20127;-66
2021/07/03 05:18:28;;;;;;;35.60;20.63;;;;;;;;;;5071602;28;20045;-66
2021/07/03 05:21:14;;;;;;;25.60;19.88;;;;;;;;;;5072353;28;20494;-66
2021/07/03 05:23:59;;;;;;;27.13;18.75;;;;;;;;;;5072486;28;20075;-66
2021/07/03 05:26:44;;;;;;;24.23;15.77;;;;;;;;;;5070287;28;20091;-66
2021/07/03 05:29:30;;;;;;;20.95;16.63;;;;;;;;;;5070609;28;20072;-66
2021/07/03 05:32:15;;;;;;;19.55;17.05;;;;;;;;;;5072277;28;20522;-66
2021/07/03 05:35:02;;;;;;;24.20;17.35;;;;;;;;;;5072345;28;20410;-66
2021/07/03 05:37:47;;;;;;;22.80;17.08;;;;;;;;;;5051763;28;20175;-66
2021/07/03 05:40:32;;;;;;;24.58;17.10;;;;;;;;;;5068084;28;20052;-66
2021/07/03 05:43:18;;;;;;;23.33;16.10;;;;;;;;;;5072125;28;20166;-66
2021/07/03 05:46:04;;;;;;;23.00;14.73;;;;;;;;;;5070962;28;20040;-66
2021/07/03 05:48:49;;;;;;;21.33;15.98;;;;;;;;;;5070769;28;20048;-66
2021/07/03 05:51:34;;;;;;;20.48;16.02;;;;;;;;;;5056705;28;20055;-66
2021/07/03 05:54:19;;;;;;;14.93;13.35;;;;;;;;;;5043120;28;20076;-66
2021/07/03 05:57:04;;;;;;;17.27;13.10;;;;;;;;;;5070771;28;20045;-66
2021/07/03 05:59:50;;;;;;;17.33;13.07;;;;;;;;;;5054251;28;20109;-66
2021/07/03 06:02:35;;;;;;;12.77;10.25;;;;;;;;;;5071228;28;20067;-66
2021/07/03 06:05:20;;;;;;;14.07;9.32;;;;;;;;;;5072046;28;20220;-66
2021/07/03 06:08:08;;;;;;;15.10;11.27;;;;;;;;;;5070001;28;20098;-66
2021/07/03 06:10:53;;;;;;;16.85;11.10;;;;;;;;;;5071056;28;20491;-65
2021/07/03 06:13:39;;;;;;;16.75;10.07;;;;;;;;;;5072001;28;20076;-66
2021/07/03 06:16:24;;;;;;;13.13;9.63;;;;;;;;;;5071840;28;20044;-65
2021/07/03 06:19:10;;;;;;;12.50;9.45;;;;;;;;;;5070461;28;20036;-66
2021/07/03 06:21:55;;;;;;;13.90;10.60;;;;;;;;;;5071749;28;20517;-66
2021/07/03 06:24:44;;;;;;;11.65;8.35;;;;;;;;;;5071735;28;20051;-66
2021/07/03 06:27:30;;;;;;;15.25;9.68;;;;;;;;;;5070361;28;20487;-66
2021/07/03 06:30:15;;;;;;;10.48;8.70;;;;;;;;;;5070026;28;20487;-66
2021/07/03 06:33:04;;;;;;;12.32;8.93;;;;;;;;;;5071548;28;20081;-66
2021/07/03 06:35:51;;;;;;;12.77;9.70;;;;;;;;;;5056458;28;20045;-66
2021/07/03 06:38:36;;;;;;;9.85;8.82;;;;;;;;;;5070241;28;20044;-65
2021/07/03 06:41:22;;;;;;;14.68;10.00;;;;;;;;;;5069619;28;20121;-66
2021/07/03 06:44:08;;;;;;;15.27;10.43;;;;;;;;;;5050832;28;20506;-66
2021/07/03 06:46:53;;;;;;;13.65;10.00;;;;;;;;;;5051587;28;20040;-66
2021/07/03 06:49:38;;;;;;;12.65;10.15;;;;;;;;;;5071157;28;20044;-66
2021/07/03 06:52:24;;;;;;;13.40;9.93;;;;;;;;;;5071536;28;20045;-66
2021/07/03 06:55:09;;;;;;;16.23;11.85;;;;;;;;;;5074475;28;20094;-66
2021/07/03 06:57:54;;;;;;;13.07;11.13;;;;;;;;;;5074768;28;20472;-66
2021/07/03 07:00:40;;;;;;;19.63;12.32;;;;;;;;;;5075086;28;20041;-66
2021/07/03 07:03:25;;;;;;;18.25;12.68;;;;;;;;;;5075235;28;20130;-66
2021/07/03 07:06:11;;;;;;;15.75;11.50;;;;;;;;;;5072968;28;20398;-66
2021/07/03 07:08:56;;;;;;;16.48;12.32;;;;;;;;;;5074706;28;20111;-66
2021/07/03 07:11:41;;;;;;;15.27;11.88;;;;;;;;;;5074781;28;20048;-66
2021/07/03 07:14:27;;;;;;;13.63;12.05;;;;;;;;;;5074498;28;20044;-66
2021/07/03 07:17:12;;;;;;;16.42;12.90;;;;;;;;;;5070474;28;20405;-65
2021/07/03 07:19:57;;;;;;;14.23;12.18;;;;;;;;;;5071137;28;20051;-66
2021/07/03 07:22:43;;;;;;;15.13;12.75;;;;;;;;;;5073133;28;20402;-66
2021/07/03 07:25:28;;;;;;;19.00;11.77;;;;;;;;;;5054774;28;20052;-65
2021/07/03 07:28:14;;;;;;;14.75;12.57;;;;;;;;;;5110048;22;20410;-66
2021/07/03 07:30:59;;;;;;;14.75;11.55;;;;;;;;;;5054000;28;20060;-67
2021/07/03 07:33:45;;;;;;;13.10;11.65;;;;;;;;;;5054391;28;20045;-67
2021/07/03 07:36:31;;;;;;;16.88;10.70;;;;;;;;;;5054619;28;20045;-67
2021/07/03 07:39:16;;;;;;;15.38;10.95;;;;;;;;;;5034428;28;20046;-67
2021/07/03 07:42:01;;;;;;;15.23;10.68;;;;;;;;;;5034415;28;20392;-67
2021/07/03 07:44:47;;;;;;;14.13;11.30;;;;;;;;;;5034130;28;20050;-68
2021/07/03 07:47:32;;;;;;;18.38;12.63;;;;;;;;;;5035416;28;20148;-67
2021/07/03 07:50:17;;;;;;;15.85;12.45;;;;;;;;;;5037673;28;20041;-67
2021/07/03 07:53:03;;;;;;;15.38;11.52;;;;;;;;;;5054284;28;20060;-67
2021/07/03 07:55:48;;;;;;;14.80;10.90;;;;;;;;;;5054600;28;20041;-67
2021/07/03 07:58:33;;;;;;;12.73;10.52;;;;;;;;;;5053990;28;20047;-67
2021/07/03 08:01:19;;;;;;;12.48;11.18;;;;;;;;;;5044141;28;20047;-67
2021/07/03 08:04:04;;;;;;;15.15;10.10;;;;;;;;;;5033632;28;20121;-67
2021/07/03 08:06:50;;;;;;;16.33;11.05;;;;;;;;;;5034047;28;20048;-67
2021/07/03 08:09:35;;;;;;;13.05;9.50;;;;;;;;;;5033887;28;20096;-67
2021/07/03 08:12:21;;;;;;;17.20;10.85;;;;;;;;;;5050516;28;20059;-68
2021/07/03 08:15:06;;;;;;;12.95;10.35;;;;;;;;;;5053645;28;20048;-67
2021/07/03 08:17:52;;;;;;;13.70;10.23;;;;;;;;;;5053812;28;20056;-67
2021/07/03 08:20:37;;;;;;;15.85;9.90;;;;;;;;;;5051382;28;20072;-67
2021/07/03 08:23:23;;;;;;;13.25;10.35;;;;;;;;;;5052235;28;20555;-67
2021/07/03 08:26:08;;;;;;;15.48;10.80;;;;;;;;;;5053800;28;20137;-67
2021/07/03 08:28:54;;;;;;;12.88;10.13;;;;;;;;;;5053463;28;20060;-67
2021/07/03 08:31:39;;;;;;;13.52;10.85;;;;;;;;;;5052438;28;20098;-67
2021/07/03 08:34:24;;;;;;;14.50;12.27;;;;;;;;;;5052063;28;20637;-67
2021/07/03 08:37:10;;;;;;;15.93;10.68;;;;;;;;;;5053468;28;20461;-67
2021/07/03 08:39:56;;;;;;;15.80;10.75;;;;;;;;;;5053040;28;20077;-67
2021/07/03 08:42:41;;;;;;;17.65;11.15;;;;;;;;;;5052251;28;20052;-67
2021/07/03 08:45:26;;;;;;;15.18;10.32;;;;;;;;;;5051420;28;20118;-67
2021/07/03 08:48:12;;;;;;;15.65;12.65;;;;;;;;;;5053248;28;20181;-67
2021/07/03 08:50:58;;;;;;;14.60;10.98;;;;;;;;;;5053013;28;20098;-67
2021/07/03 08:53:44;;;;;;;15.85;11.48;;;;;;;;;;5034917;28;20052;-67
2021/07/03 08:56:29;;;;;;;15.00;11.65;;;;;;;;;;5033469;28;20045;-67
2021/07/03 08:59:15;;;;;;;13.40;10.20;;;;;;;;;;5033249;28;20140;-67
2021/07/03 09:02:00;;;;;;;16.05;12.82;;;;;;;;;;5050690;28;20174;-67
2021/07/03 09:04:46;;;;;;;17.40;12.30;;;;;;;;;;5053138;28;20142;-67
2021/07/03 09:07:35;;;;;;;18.90;12.88;;;;;;;;;;5053035;28;20051;-67
2021/07/03 09:10:20;;;;;;;16.50;12.77;;;;;;;;;;5052103;28;20047;-67
2021/07/03 09:13:06;;;;;;;18.75;12.10;;;;;;;;;;5052844;28;20150;-68
2021/07/03 09:15:51;;;;;;;15.50;13.73;;;;;;;;;;5052051;28;20059;-68
2021/07/03 09:18:37;;;;;;;15.13;11.85;;;;;;;;;;5052666;28;20353;-68
2021/07/03 09:21:22;;;;;;;15.13;11.95;;;;;;;;;;5044005;28;20047;-68
2021/07/03 09:24:13;;;;;;;16.48;12.85;;;;;;;;;;5031246;28;20137;-68
2021/07/03 09:26:59;;;;;;;17.40;13.25;;;;;;;;;;5032525;28;20087;-68
2021/07/03 09:29:53;;;;;;;15.93;11.60;;;;;;;;;;5032366;28;20164;-68
2021/07/03 09:32:38;;;;;;;17.27;12.57;;;;;;;;;;5045370;28;20514;-68
2021/07/03 09:35:23;;;;;;;16.25;12.18;;;;;;;;;;5052304;28;20051;-68
2021/07/03 09:38:09;;;;;;;14.93;12.80;;;;;;;;;;5052202;28;20510;-68
2021/07/03 09:40:54;;;;;;;14.55;12.45;;;;;;;;;;5052162;28;20051;-68
2021/07/03 09:43:59;;;;;;;17.88;12.32;;;;;;;;;;5049395;28;20049;-68
2021/07/03 09:46:47;;;;;;;18.85;12.68;;;;;;;;;;5052109;28;20059;-68
2021/07/03 09:49:33;;;;;;;14.35;11.38;;;;;;;;;;5051790;28;20048;-68
2021/07/03 09:52:21;;;;;;;15.88;12.15;;;;;;;;;;5051418;28;20099;-68
2021/07/03 09:55:07;;;;;;;19.10;12.88;;;;;;;;;;5051146;28;20095;-68
2021/07/03 09:57:53;;;;;;;15.13;11.20;;;;;;;;;;5051998;28;20048;-68
2021/07/03 10:00:38;;;;;;;14.35;11.02;;;;;;;;;;5051611;28;20514;-68
2021/07/03 10:03:23;;;;;;;13.52;10.73;;;;;;;;;;5051228;28;20410;-68
2021/07/03 10:06:08;;;;;;;12.90;9.50;;;;;;;;;;5052076;28;20064;-68
2021/07/03 10:08:56;;;;;;;12.95;11.02;;;;;;;;;;5050663;28;20530;-68
2021/07/03 10:11:42;;;;;;;16.35;10.98;;;;;;;;;;5051590;28;20079;-68
2021/07/03 10:14:27;;;;;;;14.77;11.07;;;;;;;;;;5051336;28;20052;-68
2021/07/03 10:17:13;;;;;;;14.50;10.43;;;;;;;;;;5050772;28;20411;-68
2021/07/03 10:19:58;;;;;;;13.40;10.73;;;;;;;;;;5051526;28;20047;-68
2021/07/03 10:22:52;;;;;;;11.82;9.40;;;;;;;;;;5051729;28;20175;-68
2021/07/03 10:25:41;;;;;;;16.85;11.13;;;;;;;;;;5031799;28;20073;-68
2021/07/03 10:28:31;;;;;;;14.85;11.63;;;;;;;;;;5034798;28;20048;-68
2021/07/03 10:31:17;;;;;;;11.03;8.60;;;;;;;;;;5035733;28;20045;-68
2021/07/03 10:34:02;;;;;;;9.95;8.45;;;;;;;;;;5042048;28;20048;-68
2021/07/03 10:36:47;;;;;;;9.40;8.10;;;;;;;;;;5054493;28;20068;-68
2021/07/03 10:39:33;;;;;;;11.60;9.23;;;;;;;;;;5054365;28;20510;-69
2021/07/03 10:42:26;;;;;;;9.65;8.65;;;;;;;;;;5055644;28;20501;-69
2021/07/03 10:45:16;;;;;;;10.48;8.82;;;;;;;;;;5053048;28;20037;-69
2021/07/03 10:48:01;;;;;;;8.80;7.57;;;;;;;;;;5035044;28;20191;-69
2021/07/03 10:50:47;;;;;;;10.60;8.10;;;;;;;;;;5038442;28;20053;-68
2021/07/03 10:53:32;;;;;;;9.27;7.65;;;;;;;;;;5034576;28;20067;-68
2021/07/03 10:56:18;;;;;;;10.05;8.02;;;;;;;;;;5035350;28;20514;-68
2021/07/03 10:59:09;;;;;;;8.02;7.22;;;;;;;;;;5035295;28;20095;-68
2021/07/03 11:01:54;;;;;;;10.63;7.82;;;;;;;;;;5038123;28;20410;-68
2021/07/03 11:04:46;;;;;;;9.15;7.68;;;;;;;;;;5035266;28;20095;-68
2021/07/03 11:07:32;;;;;;;11.55;8.05;;;;;;;;;;5035166;28;20052;-68
2021/07/03 11:10:18;;;;;;;9.95;8.27;;;;;;;;;;5034947;28;20064;-68
2021/07/03 11:13:04;;;;;;;10.70;7.57;;;;;;;;;;5034167;28;20048;-68
2021/07/03 11:15:49;;;;;;;7.85;6.68;;;;;;;;;;5035107;28;20107;-67
2021/07/03 11:18:35;;;;;;;8.20;6.60;;;;;;;;;;5034826;28;20430;-68
2021/07/03 11:21:20;;;;;;;10.80;7.45;;;;;;;;;;5040126;28;20418;-68
2021/07/03 11:24:06;;;;;;;9.13;7.85;;;;;;;;;;5053394;28;20055;-68
2021/07/03 11:26:59;;;;;;;8.48;6.72;;;;;;;;;;5054758;28;20048;-68
2021/07/03 11:29:44;;;;;;;11.07;7.22;;;;;;;;;;5053263;28;20051;-68
2021/07/03 11:32:29;;;;;;;7.78;6.97;;;;;;;;;;5053713;28;20049;-68
2021/07/03 11:35:15;;;;;;;9.65;6.82;;;;;;;;;;5054504;28;20495;-68
2021/07/03 11:38:00;;;;;;;9.85;7.35;;;;;;;;;;5054533;28;20052;-68
2021/07/03 11:40:46;;;;;;;7.97;6.95;;;;;;;;;;5054039;28;20049;-68
2021/07/03 11:43:33;;;;;;;9.05;7.63;;;;;;;;;;5053614;28;20051;-68
2021/07/03 11:46:19;;;;;;;8.15;6.53;;;;;;;;;;5054590;28;20052;-68
2021/07/03 11:49:04;;;;;;;6.72;6.03;;;;;;;;;;5054329;28;20067;-68
2021/07/03 11:52:03;;;;;;;10.55;6.75;;;;;;;;;;5052461;28;20588;-68
2021/07/03 11:54:48;;;;;;;8.77;7.88;;;;;;;;;;5054167;28;20483;-68
2021/07/03 11:57:40;;;;;;;9.15;7.28;;;;;;;;;;5046890;28;20034;-68
2021/07/03 12:00:26;;;;;;;8.38;6.70;;;;;;;;;;5032798;28;20045;-68
2021/07/03 12:03:11;;;;;;;8.05;5.70;;;;;;;;;;5032955;28;20055;-68
2021/07/03 12:05:57;;;;;;;8.35;6.22;;;;;;;;;;5033062;28;20100;-68
2021/07/03 12:08:43;;;;;;;10.73;6.97;;;;;;;;;;5046272;28;20070;-68
2021/07/03 12:11:28;;;;;;;7.70;6.53;;;;;;;;;;5053114;28;20052;-67
2021/07/03 12:14:14;;;;;;;8.00;6.53;;;;;;;;;;5053664;28;20052;-68
2021/07/03 12:16:59;;;;;;;10.00;5.82;;;;;;;;;;5053645;28;20052;-68
2021/07/03 12:19:44;;;;;;;8.73;6.65;;;;;;;;;;5052697;28;20072;-68
2021/07/03 12:22:30;;;;;;;9.15;5.70;;;;;;;;;;5053629;28;20510;-68
2021/07/03 12:25:15;;;;;;;10.52;6.85;;;;;;;;;;5053469;28;20102;-68
2021/07/03 12:28:02;;;;;;;7.30;6.47;;;;;;;;;;5053475;28;20056;-68
2021/07/03 12:30:47;;;;;;;7.20;5.78;;;;;;;;;;5047590;28;20447;-68
2021/07/03 12:33:33;;;;;;;8.20;6.28;;;;;;;;;;5033447;28;20050;-68
2021/07/03 12:36:19;;;;;;;7.97;6.35;;;;;;;;;;5033729;28;20211;-68
2021/07/03 12:39:04;;;;;;;6.55;5.88;;;;;;;;;;5032379;28;20516;-68
2021/07/03 12:41:56;;;;;;;7.18;6.47;;;;;;;;;;5033207;28;20038;-68
2021/07/03 12:44:42;;;;;;;9.50;6.82;;;;;;;;;;5033387;28;20053;-68
2021/07/03 12:47:27;;;;;;;7.05;6.35;;;;;;;;;;5033235;28;20514;-68
2021/07/03 12:50:12;;;;;;;9.00;6.25;;;;;;;;;;5042153;28;20045;-68
2021/07/03 12:53:07;;;;;;;7.40;6.63;;;;;;;;;;5052918;28;20569;-68
2021/07/03 12:55:52;;;;;;;7.28;6.55;;;;;;;;;;5053068;28;20403;-68
2021/07/03 12:58:38;;;;;;;9.15;5.95;;;;;;;;;;5052807;28;20048;-68
2021/07/03 13:01:28;;;;;;;12.90;6.32;;;;;;;;;;5052121;28;20045;-68
2021/07/03 13:04:13;;;;;;;9.70;6.63;;;;;;;;;;5052990;28;20055;-68
2021/07/03 13:06:58;;;;;;;6.85;6.15;;;;;;;;;;5052821;28;20491;-68
2021/07/03 13:09:44;;;;;;;8.75;6.95;;;;;;;;;;5052320;28;20423;-68
2021/07/03 13:12:29;;;;;;;9.75;7.03;;;;;;;;;;5031927;28;20123;-68
2021/07/03 13:15:14;;;;;;;7.57;6.13;;;;;;;;;;5035584;28;20512;-68
2021/07/03 13:18:00;;;;;;;6.82;6.13;;;;;;;;;;5045686;28;20052;-68
2021/07/03 13:20:46;;;;;;;7.68;6.15;;;;;;;;;;5036656;28;20102;-68
2021/07/03 13:23:33;;;;;;;7.43;6.30;;;;;;;;;;5052473;28;20072;-68
2021/07/03 13:26:18;;;;;;;6.43;5.45;;;;;;;;;;5052514;28;20530;-68
2021/07/03 13:29:07;;;;;;;8.68;7.00;;;;;;;;;;5077961;22;20044;-68
2021/07/03 13:31:52;;;;;;;7.75;6.10;;;;;;;;;;5050633;28;20037;-65
2021/07/03 13:34:37;;;;;;;8.13;6.75;;;;;;;;;;5058995;28;20055;-64
2021/07/03 13:37:22;;;;;;;6.93;6.13;;;;;;;;;;5046120;28;20059;-66
2021/07/03 13:40:08;;;;;;;8.05;6.35;;;;;;;;;;5056224;28;20525;-65
2021/07/03 13:42:53;;;;;;;5.90;5.30;;;;;;;;;;5056115;28;20045;-65
2021/07/03 13:45:39;;;;;;;8.52;6.47;;;;;;;;;;5048381;28;20577;-65
2021/07/03 13:48:24;;;;;;;7.28;6.57;;;;;;;;;;5061725;28;20060;-65
2021/07/03 13:51:10;;;;;;;6.47;5.43;;;;;;;;;;5060714;28;20040;-66
2021/07/03 13:53:55;;;;;;;6.25;5.45;;;;;;;;;;5055157;28;20133;-67
2021/07/03 13:56:41;;;;;;;6.57;5.45;;;;;;;;;;5062314;28;20052;-67
2021/07/03 13:59:26;;;;;;;6.03;5.28;;;;;;;;;;5050091;28;20063;-67
2021/07/03 14:02:11;;;;;;;7.10;6.40;;;;;;;;;;5035675;28;20187;-66
2021/07/03 14:04:56;;;;;;;7.85;6.55;;;;;;;;;;5066504;28;20043;-66
2021/07/03 14:07:42;;;;;;;8.13;7.32;;;;;;;;;;5069571;28;20248;-66
2021/07/03 14:10:27;;;;;;;8.02;6.28;;;;;;;;;;5069112;28;20044;-66
2021/07/03 14:13:13;;;;;;;6.60;5.70;;;;;;;;;;5058320;28;20060;-66
2021/07/03 14:15:58;;;;;;;7.72;6.25;;;;;;;;;;5049877;28;20056;-66
2021/07/03 14:18:43;;;;;;;7.03;5.65;;;;;;;;;;5052236;28;20064;-66
2021/07/03 14:21:29;;;;;;;7.72;5.97;;;;;;;;;;5049672;28;20052;-65
2021/07/03 14:24:14;;;;;;;6.97;6.30;;;;;;;;;;5047510;28;20068;-65
2021/07/03 14:26:59;;;;;;;6.70;6.00;;;;;;;;;;5048857;28;20055;-65
2021/07/03 14:29:45;;;;;;;6.90;6.20;;;;;;;;;;5049068;28;20052;-65
2021/07/03 14:32:30;;;;;;;6.03;5.30;;;;;;;;;;5056937;28;20059;-66
2021/07/03 14:35:15;;;;;;;8.65;5.93;;;;;;;;;;5048946;28;20111;-65
2021/07/03 14:38:00;;;;;;;10.15;6.20;;;;;;;;;;5048206;28;20064;-65
2021/07/03 14:40:45;;;;;;;6.85;6.00;;;;;;;;;;5048991;28;20041;-65
2021/07/03 14:43:31;;;;;;;6.32;5.47;;;;;;;;;;5048538;28;20112;-65
2021/07/03 14:46:17;;;;;;;6.38;5.78;;;;;;;;;;5041447;28;20407;-65
2021/07/03 14:49:03;;;;;;;8.07;6.07;;;;;;;;;;5048283;28;20522;-66
2021/07/03 14:51:49;;;;;;;5.80;5.03;;;;;;;;;;5049310;28;20048;-65
2021/07/03 14:54:34;;;;;;;7.10;6.38;;;;;;;;;;5048092;28;20434;-65
2021/07/03 14:57:19;;;;;;;8.07;6.53;;;;;;;;;;5048841;28;20553;-65
2021/07/03 15:00:07;;;;;;;8.27;6.78;;;;;;;;;;5047802;28;20121;-65
2021/07/03 15:02:53;;;;;;;6.90;5.75;;;;;;;;;;5032763;28;20102;-66
2021/07/03 15:05:38;;;;;;;7.18;5.75;;;;;;;;;;5029354;28;20045;-66
2021/07/03 15:08:24;;;;;;;7.13;6.40;;;;;;;;;;5029281;28;20045;-65
2021/07/03 15:11:09;;;;;;;9.25;6.38;;;;;;;;;;5027456;28;20072;-66
2021/07/03 15:13:54;;;;;;;6.28;5.53;;;;;;;;;;5028359;28;20131;-65
2021/07/03 15:16:39;;;;;;;7.25;6.47;;;;;;;;;;5038192;28;20064;-65
2021/07/03 15:19:24;;;;;;;8.55;6.45;;;;;;;;;;5037133;28;20681;-65
2021/07/03 15:22:10;;;;;;;8.20;6.20;;;;;;;;;;5050674;28;20415;-65
2021/07/03 15:24:55;;;;;;;6.40;5.80;;;;;;;;;;5051138;28;20060;-65
2021/07/03 15:27:41;;;;;;;6.85;5.95;;;;;;;;;;5036301;28;20048;-65
2021/07/03 15:30:28;;;;;;;8.77;6.55;;;;;;;;;;5058073;28;20090;-65
2021/07/03 15:33:14;;;;;;;7.03;6.35;;;;;;;;;;5054396;28;20402;-65
2021/07/03 15:36:00;;;;;;;7.75;6.70;;;;;;;;;;5051600;28;20048;-65
2021/07/03 15:38:46;;;;;;;7.47;6.30;;;;;;;;;;5051021;28;21392;-65
2021/07/03 15:41:31;;;;;;;7.93;6.72;;;;;;;;;;5052250;28;20068;-65
2021/07/03 15:44:17;;;;;;;6.95;6.25;;;;;;;;;;5050832;28;20052;-65
2021/07/03 15:47:02;;;;;;;8.88;6.50;;;;;;;;;;5045999;28;20045;-65
2021/07/03 15:49:47;;;;;;;7.45;6.20;;;;;;;;;;5051828;28;20445;-65
2021/07/03 15:52:33;;;;;;;9.13;6.03;;;;;;;;;;5051478;28;20174;-65
2021/07/03 15:55:19;;;;;;;7.50;6.72;;;;;;;;;;5050275;28;20118;-65
2021/07/03 15:58:04;;;;;;;10.02;6.70;;;;;;;;;;5050515;28;20063;-65
2021/07/03 16:00:50;;;;;;;6.97;6.10;;;;;;;;;;5050693;28;20067;-65
2021/07/03 16:03:35;;;;;;;9.93;6.57;;;;;;;;;;5042625;28;20049;-65
2021/07/03 16:06:21;;;;;;;7.80;6.55;;;;;;;;;;5030867;28;20052;-65
2021/07/03 16:09:06;;;;;;;6.28;5.68;;;;;;;;;;5041184;28;20051;-65
2021/07/03 16:11:51;;;;;;;7.68;6.10;;;;;;;;;;5038893;28;20067;-65
2021/07/03 16:14:36;;;;;;;6.50;5.90;;;;;;;;;;5031382;28;20790;-65
2021/07/03 16:17:21;;;;;;;6.82;6.10;;;;;;;;;;5031437;28;20072;-65